Time;durP1;ratioP1;P1;durP2;ratioP2;P2;SDS_P1;SDS_P2;PMS_P1;PMS_P2;Temp;Humidity;BMP_temperature;BMP_pressure;BME280_temperature;BME280_humidity;BME280_pressure;Samples;Min_cycle;Max_cycle;Signal;HPM_P1;HPM_P2
2021/11/09 00:02:12;;;;;;;8.65;5.65;;;1.30;99.90;;;;;;5012762;28;20208;-69
2021/11/09 00:04:41;;;;;;;7.47;5.82;;;1.30;99.90;;;;;;5012334;28;20198;-69
2021/11/09 00:07:12;;;;;;;10.98;6.30;;;1.30;99.90;;;;;;5012135;28;20592;-69
2021/11/09 00:09:56;;;;;;;9.32;6.63;;;1.30;99.90;;;;;;5012287;28;20681;-69
2021/11/09 00:12:27;;;;;;;9.55;6.00;;;1.30;99.90;;;;;;5013262;28;20233;-68
2021/11/09 00:14:54;;;;;;;7.75;6.03;;;1.30;99.90;;;;;;5014733;28;20206;-68
2021/11/09 00:17:22;;;;;;;11.95;6.57;;;1.30;99.90;;;;;;5015434;28;20230;-68
2021/11/09 00:19:49;;;;;;;16.88;6.82;;;1.30;99.90;;;;;;5012362;28;20210;-68
2021/11/09 00:22:16;;;;;;;13.40;6.00;;;1.20;99.90;;;;;;5012321;28;20213;-68
2021/11/09 00:24:43;;;;;;;10.10;6.32;;;1.20;99.90;;;;;;5011893;28;20206;-68
2021/11/09 00:27:10;;;;;;;7.40;6.47;;;1.20;99.90;;;;;;5011645;28;20756;-68
2021/11/09 00:29:37;;;;;;;11.00;6.35;;;1.20;99.90;;;;;;5011681;28;20667;-68
2021/11/09 00:32:05;;;;;;;9.05;6.10;;;1.10;99.90;;;;;;5012129;28;20225;-68
2021/11/09 00:34:33;;;;;;;9.95;6.18;;;1.10;99.90;;;;;;5012002;28;20203;-68
2021/11/09 00:37:00;;;;;;;10.77;6.05;;;1.10;99.90;;;;;;5011446;28;20577;-68
2021/11/09 00:39:26;;;;;;;6.53;5.10;;;1.10;99.90;;;;;;5012291;28;20302;-68
2021/11/09 00:41:53;;;;;;;9.30;6.25;;;1.10;99.90;;;;;;5011924;28;20693;-68
2021/11/09 00:44:20;;;;;;;9.75;5.90;;;1.10;99.90;;;;;;5011700;28;20228;-68
2021/11/09 00:46:47;;;;;;;9.80;5.95;;;1.00;99.90;;;;;;5010908;28;20233;-68
2021/11/09 00:49:13;;;;;;;9.30;6.38;;;1.00;99.90;;;;;;5011682;28;20210;-68
2021/11/09 00:51:43;;;;;;;10.77;5.90;;;1.00;99.90;;;;;;5011438;28;20226;-68
2021/11/09 00:54:10;;;;;;;11.07;6.63;;;1.00;99.90;;;;;;5011404;28;20198;-68
2021/11/09 00:56:37;;;;;;;8.85;6.53;;;1.00;99.90;;;;;;5010725;28;20222;-68
2021/11/09 00:59:04;;;;;;;10.25;6.05;;;0.90;99.90;;;;;;5011468;28;20209;-68
2021/11/09 01:01:31;;;;;;;9.27;6.35;;;0.90;99.90;;;;;;5011297;28;20305;-68
2021/11/09 01:03:58;;;;;;;9.80;7.10;;;0.90;99.90;;;;;;5011310;28;20207;-68
2021/11/09 01:06:25;;;;;;;10.70;5.80;;;0.90;99.90;;;;;;5010751;28;20646;-68
2021/11/09 01:08:53;;;;;;;10.32;6.10;;;0.90;99.90;;;;;;5011226;28;20215;-68
2021/11/09 01:11:20;;;;;;;12.63;7.72;;;0.90;99.90;;;;;;5011162;28;20225;-68
2021/11/09 01:13:48;;;;;;;14.05;8.10;;;1.00;99.90;;;;;;5010975;28;20218;-68
2021/11/09 01:16:16;;;;;;;12.18;8.20;;;1.00;99.90;;;;;;5010608;28;20233;-68
2021/11/09 01:18:46;;;;;;;10.75;7.47;;;1.00;99.90;;;;;;5011097;28;20202;-68
2021/11/09 01:21:15;;;;;;;9.10;7.18;;;1.00;99.90;;;;;;5011302;28;20206;-68
2021/11/09 01:23:43;;;;;;;9.48;7.10;;;1.00;99.90;;;;;;5010930;28;20609;-68
2021/11/09 01:26:11;;;;;;;9.88;6.72;;;1.00;99.90;;;;;;5010747;28;20309;-68
2021/11/09 01:28:40;;;;;;;9.85;7.50;;;1.00;99.90;;;;;;5010879;28;20214;-68
2021/11/09 01:31:08;;;;;;;11.25;7.53;;;1.00;99.90;;;;;;5010993;28;20250;-68
2021/11/09 01:33:36;;;;;;;11.93;6.65;;;1.00;99.90;;;;;;5011089;28;20610;-68
2021/11/09 01:36:04;;;;;;;11.30;7.68;;;1.00;99.90;;;;;;5010378;28;20229;-68
2021/11/09 01:38:31;;;;;;;11.07;6.90;;;1.00;99.90;;;;;;5010903;28;20207;-68
2021/11/09 01:40:58;;;;;;;12.25;7.80;;;1.00;99.90;;;;;;5011042;28;20724;-68
2021/11/09 01:43:29;;;;;;;11.23;7.13;;;1.10;99.90;;;;;;5015042;28;20202;-68
2021/11/09 01:45:58;;;;;;;8.38;6.90;;;1.10;99.90;;;;;;5014385;28;20226;-68
2021/11/09 01:48:26;;;;;;;14.93;8.07;;;1.10;99.90;;;;;;5014990;28;20225;-68
2021/11/09 01:50:56;;;;;;;8.07;6.60;;;1.10;99.90;;;;;;5014737;28;20573;-68
2021/11/09 01:53:23;;;;;;;8.60;7.07;;;1.10;99.90;;;;;;5014816;28;20202;-68
2021/11/09 01:55:51;;;;;;;11.32;7.03;;;1.20;99.90;;;;;;5013937;28;20269;-68
2021/11/09 01:58:18;;;;;;;11.80;7.45;;;1.20;99.90;;;;;;5014594;28;20210;-68
2021/11/09 02:00:48;;;;;;;11.27;7.45;;;1.20;99.90;;;;;;5014523;28;20210;-68
2021/11/09 02:03:15;;;;;;;12.38;7.45;;;1.20;99.90;;;;;;5014666;28;20563;-68
2021/11/09 02:05:43;;;;;;;12.07;8.05;;;1.20;99.90;;;;;;5013980;28;20210;-68
2021/11/09 02:08:10;;;;;;;13.07;7.30;;;1.20;99.90;;;;;;5014473;28;20262;-68
2021/11/09 02:10:39;;;;;;;12.07;6.93;;;1.20;99.90;;;;;;5014240;28;20214;-68
2021/11/09 02:13:06;;;;;;;9.30;6.40;;;1.30;99.90;;;;;;5014531;28;20207;-68
2021/11/09 02:15:35;;;;;;;12.80;7.53;;;1.30;99.90;;;;;;5014025;28;20203;-68
2021/11/09 02:18:04;;;;;;;10.15;7.28;;;1.30;99.90;;;;;;5014057;28;20213;-68
2021/11/09 02:20:31;;;;;;;16.13;7.70;;;1.30;99.90;;;;;;5014328;28;20252;-68
2021/11/09 02:23:01;;;;;;;10.30;7.35;;;1.30;99.90;;;;;;5014277;28;20552;-68
2021/11/09 02:25:30;;;;;;;12.13;6.70;;;1.30;99.90;;;;;;5014085;28;20210;-68
2021/11/09 02:27:57;;;;;;;9.38;7.40;;;1.30;99.90;;;;;;5013764;28;20575;-68
2021/11/09 02:30:26;;;;;;;8.85;6.40;;;1.40;99.90;;;;;;5014037;28;20205;-68
2021/11/09 02:32:55;;;;;;;9.73;7.15;;;1.40;99.90;;;;;;5013900;28;20210;-69
2021/11/09 02:35:23;;;;;;;12.32;7.20;;;1.40;99.90;;;;;;5013994;28;20290;-68
2021/11/09 02:37:50;;;;;;;15.23;7.15;;;1.40;99.90;;;;;;5013308;28;20721;-68
2021/11/09 02:40:19;;;;;;;13.73;7.60;;;1.40;99.90;;;;;;5013964;28;20206;-68
2021/11/09 02:42:49;;;;;;;9.95;6.93;;;1.40;99.90;;;;;;5013770;28;20609;-68
2021/11/09 02:45:21;;;;;;;10.65;6.57;;;1.40;99.90;;;;;;5013829;28;20207;-68
2021/11/09 02:47:52;;;;;;;12.90;7.78;;;1.40;99.90;;;;;;5013096;28;20729;-68
2021/11/09 02:50:22;;;;;;;8.45;6.43;;;1.40;99.90;;;;;;5014150;28;20218;-68
2021/11/09 02:52:54;;;;;;;13.18;7.32;;;1.50;99.90;;;;;;5013004;28;20210;-68
2021/11/09 02:55:29;;;;;;;11.23;7.63;;;1.50;99.90;;;;;;5013623;28;20202;-68
2021/11/09 02:58:01;;;;;;;13.00;7.97;;;1.50;99.90;;;;;;5013067;28;20230;-68
2021/11/09 03:00:30;;;;;;;14.02;8.07;;;1.60;99.90;;;;;;5013716;28;20583;-68
2021/11/09 03:03:02;;;;;;;11.13;7.53;;;1.60;99.90;;;;;;5013406;28;20666;-68
2021/11/09 03:05:31;;;;;;;8.63;7.32;;;1.60;99.90;;;;;;5013525;28;20214;-68
2021/11/09 03:08:03;;;;;;;9.18;7.85;;;1.60;99.90;;;;;;5013095;28;20679;-68
2021/11/09 03:10:34;;;;;;;8.10;7.30;;;1.70;99.90;;;;;;5013307;28;20219;-68
2021/11/09 03:13:02;;;;;;;11.80;7.45;;;1.70;99.90;;;;;;5013471;28;20265;-68
2021/11/09 03:15:31;;;;;;;10.57;7.22;;;1.70;99.90;;;;;;5013228;28;20205;-68
2021/11/09 03:18:01;;;;;;;9.45;7.03;;;1.70;99.90;;;;;;5012208;28;20690;-68
2021/11/09 03:20:33;;;;;;;10.63;8.02;;;1.70;99.90;;;;;;5013135;28;20244;-68
2021/11/09 03:45:13;;;;;;;9.88;7.05;;;1.50;99.90;;;;;;5007666;28;20280;-68
2021/11/09 03:47:42;;;;;;;12.10;7.70;;;1.50;99.90;;;;;;5011750;28;20603;-68
2021/11/09 03:50:10;;;;;;;10.95;6.97;;;1.50;99.90;;;;;;5012589;28;20202;-68
2021/11/09 03:52:42;;;;;;;10.48;7.43;;;1.40;99.90;;;;;;5012403;28;20222;-68
2021/11/09 03:55:13;;;;;;;12.63;7.43;;;1.40;99.90;;;;;;5012367;28;20218;-68
2021/11/09 03:57:46;;;;;;;7.93;6.90;;;1.40;99.90;;;;;;5011593;28;20322;-68
2021/11/09 04:00:19;;;;;;;9.35;6.90;;;1.40;99.90;;;;;;5012448;28;20207;-68
2021/11/09 04:02:51;;;;;;;12.20;7.35;;;1.30;99.90;;;;;;5012154;28;20206;-68
2021/11/09 04:05:21;;;;;;;11.45;7.65;;;1.30;99.90;;;;;;5011224;28;20217;-68
2021/11/09 04:07:55;;;;;;;10.35;7.75;;;1.20;99.90;;;;;;5011625;28;20234;-68
2021/11/09 04:10:31;;;;;;;12.73;7.38;;;1.20;99.90;;;;;;5012119;28;20212;-68
2021/11/09 04:13:07;;;;;;;11.60;8.10;;;1.20;99.90;;;;;;5012179;28;20229;-68
2021/11/09 04:15:49;;;;;;;12.02;6.57;;;1.10;99.90;;;;;;5011795;28;20245;-68
2021/11/09 04:18:31;;;;;;;11.98;7.30;;;1.10;99.90;;;;;;5012112;28;20670;-68
2021/11/09 04:21:06;;;;;;;11.48;7.70;;;1.10;99.90;;;;;;5012074;28;20199;-68
2021/11/09 04:24:10;;;;;;;12.95;7.50;;;1.10;99.90;;;;;;5011755;28;20300;-68
2021/11/09 04:29:46;;;;;;;14.30;7.50;;;1.00;99.90;;;;;;5011753;28;20237;-69
2021/11/09 04:32:33;;;;;;;9.77;7.20;;;0.90;99.90;;;;;;5011606;28;20233;-68
2021/11/09 05:10:32;;;;;;;8.00;5.60;;;0.70;99.90;;;;;;5013305;28;20577;-69
2021/11/09 05:12:59;;;;;;;13.65;7.38;;;0.60;99.90;;;;;;5019715;28;20729;-68
2021/11/09 05:15:26;;;;;;;11.38;6.65;;;0.60;99.90;;;;;;5020355;28;20566;-68
2021/11/09 05:17:54;;;;;;;12.63;6.88;;;0.60;99.90;;;;;;5019525;28;20224;-68
2021/11/09 05:20:21;;;;;;;12.02;6.15;;;0.60;99.90;;;;;;5019999;28;20228;-68
2021/11/09 05:22:48;;;;;;;10.35;7.07;;;0.60;99.90;;;;;;5018802;28;20202;-68
2021/11/09 05:25:14;;;;;;;10.57;6.55;;;0.60;99.90;;;;;;5018758;28;20463;-68
2021/11/09 05:27:43;;;;;;;11.88;7.32;;;0.60;99.90;;;;;;5014821;28;20218;-68
2021/11/09 05:30:10;;;;;;;9.82;5.85;;;0.50;99.90;;;;;;5014302;28;20930;-68
2021/11/09 05:32:37;;;;;;;9.00;6.85;;;0.60;99.90;;;;;;5067753;23;20224;-94
2021/11/09 05:35:06;;;;;;;7.18;6.18;;;0.60;99.90;;;;;;5066318;28;20200;-92
2021/11/09 05:37:38;;;;;;;10.27;6.18;;;0.50;99.90;;;;;;5072240;28;20196;-92
2021/11/09 05:40:07;;;;;;;12.52;6.05;;;0.50;99.90;;;;;;5072761;28;20216;-92
2021/11/09 05:42:35;;;;;;;11.10;6.22;;;0.50;99.90;;;;;;5072851;28;20217;-93
2021/11/09 05:45:01;;;;;;;9.27;6.47;;;0.50;99.90;;;;;;5073936;28;20226;-92
2021/11/09 05:47:29;;;;;;;8.80;6.15;;;0.50;99.90;;;;;;5073877;28;20215;-92
2021/11/09 05:49:55;;;;;;;10.70;6.50;;;0.40;99.90;;;;;;5074658;28;20262;-93
2021/11/09 05:52:24;;;;;;;8.07;6.07;;;0.40;99.90;;;;;;5074312;28;20647;-92
2021/11/09 05:54:51;;;;;;;11.10;6.85;;;0.50;99.90;;;;;;5074408;28;20208;-92
2021/11/09 05:57:18;;;;;;;9.13;6.40;;;0.50;99.90;;;;;;5074228;28;20577;-91
2021/11/09 05:59:45;;;;;;;7.32;5.85;;;0.50;99.90;;;;;;5075140;28;20195;-92
2021/11/09 06:02:12;;;;;;;8.60;6.25;;;0.40;99.90;;;;;;5074568;28;20233;-93
2021/11/09 06:04:39;;;;;;;9.55;6.60;;;0.40;99.90;;;;;;5073211;28;20680;-92
2021/11/09 06:07:06;;;;;;;11.13;6.07;;;0.40;99.90;;;;;;5077230;28;20205;-92
2021/11/09 06:09:34;;;;;;;9.55;6.65;;;0.40;99.90;;;;;;5076596;28;20200;-93
2021/11/09 06:12:01;;;;;;;7.13;6.15;;;0.40;99.90;;;;;;5076049;28;20228;-94
2021/11/09 06:14:28;;;;;;;9.85;6.88;;;0.40;99.90;;;;;;5074546;28;20218;-92
2021/11/09 06:16:55;;;;;;;9.45;6.40;;;0.40;99.90;;;;;;5075052;28;20269;-93
2021/11/09 06:19:25;;;;;;;7.38;5.82;;;0.40;99.90;;;;;;5075016;28;20224;-93
2021/11/09 06:21:51;;;;;;;6.90;5.30;;;0.40;99.90;;;;;;5073977;28;20523;-92
2021/11/09 06:24:18;;;;;;;10.63;6.65;;;0.40;99.90;;;;;;5072888;28;20204;-92
2021/11/09 06:26:47;;;;;;;7.68;6.00;;;0.30;99.90;;;;;;5074006;28;20207;-92
2021/11/09 06:29:14;;;;;;;10.10;5.93;;;0.30;99.90;;;;;;5077254;28;20495;-94
2021/11/09 06:31:42;;;;;;;11.80;6.65;;;0.30;99.90;;;;;;5078944;28;20772;-92
2021/11/09 06:34:09;;;;;;;8.70;5.10;;;0.30;99.90;;;;;;5076382;28;20204;-92
2021/11/09 06:36:35;;;;;;;9.63;6.88;;;0.30;99.90;;;;;;5076095;28;20197;-92
2021/11/09 06:39:03;;;;;;;10.05;5.32;;;0.40;99.90;;;;;;5075766;28;20212;-92
2021/11/09 06:41:30;;;;;;;10.48;5.85;;;0.30;99.90;;;;;;5075866;28;20709;-92
2021/11/09 06:43:58;;;;;;;8.25;5.88;;;0.40;99.90;;;;;;5075687;28;20552;-92
2021/11/09 06:46:25;;;;;;;8.25;5.80;;;0.40;99.90;;;;;;5075508;28;20204;-92
2021/11/09 06:48:52;;;;;;;10.93;5.88;;;0.40;99.90;;;;;;5076012;28;20251;-94
2021/11/09 06:51:19;;;;;;;9.02;5.95;;;0.40;99.90;;;;;;5075501;28;20229;-93
2021/11/09 06:53:46;;;;;;;8.18;6.20;;;0.50;99.90;;;;;;5075662;28;20224;-94
2021/11/09 06:56:13;;;;;;;6.55;5.72;;;0.50;99.90;;;;;;5075392;28;20212;-91
2021/11/09 06:58:40;;;;;;;8.32;6.18;;;0.50;99.90;;;;;;5075708;28;20200;-93
2021/11/09 07:01:08;;;;;;;13.05;7.13;;;0.50;99.90;;;;;;5075948;28;20205;-92
2021/11/09 07:03:35;;;;;;;10.30;5.68;;;0.60;99.90;;;;;;5075444;28;20205;-93
2021/11/09 07:06:04;;;;;;;8.30;6.53;;;0.60;99.90;;;;;;5076248;28;20208;-92
2021/11/09 07:08:30;;;;;;;7.53;6.05;;;0.60;99.90;;;;;;5076019;28;20679;-93
2021/11/09 07:10:59;;;;;;;9.45;5.60;;;0.60;99.90;;;;;;5075164;28;20269;-93
2021/11/09 07:13:26;;;;;;;6.70;5.50;;;0.70;99.90;;;;;;5075592;28;20225;-93
2021/11/09 07:15:53;;;;;;;8.82;7.95;;;0.70;99.90;;;;;;5075569;28;20212;-92
2021/11/09 07:18:22;;;;;;;6.43;5.63;;;0.70;99.90;;;;;;5075840;28;20583;-94
2021/11/09 07:20:50;;;;;;;8.45;5.30;;;0.80;99.90;;;;;;5076375;28;20230;-94
2021/11/09 07:23:17;;;;;;;9.70;6.28;;;0.80;99.90;;;;;;5076428;28;20246;-93
2021/11/09 07:25:43;;;;;;;9.32;6.20;;;0.90;99.90;;;;;;5076567;28;20209;-93
2021/11/09 07:28:10;;;;;;;7.88;6.13;;;0.90;99.90;;;;;;5075029;28;20204;-93
2021/11/09 07:30:43;;;;;;;9.25;6.93;;;1.10;99.90;;;;;;5075364;28;20205;-92
2021/11/09 07:33:10;;;;;;;8.65;6.30;;;1.40;99.90;;;;;;5074588;28;20232;-93
2021/11/09 07:35:39;;;;;;;8.00;6.30;;;2.20;99.90;;;;;;5075594;28;20716;-93
2021/11/09 07:38:06;;;;;;;8.15;6.65;;;3.10;99.90;;;;;;5075695;28;20213;-93
2021/11/09 07:40:33;;;;;;;7.80;5.85;;;3.60;99.90;;;;;;5076537;28;20215;-93
2021/11/09 07:43:00;;;;;;;7.00;5.05;;;3.90;99.90;;;;;;5076656;28;20216;-92
2021/11/09 07:45:27;;;;;;;8.93;6.10;;;4.00;99.90;;;;;;5076564;28;20204;-93
2021/11/09 07:47:56;;;;;;;7.43;6.10;;;4.10;99.90;;;;;;5075071;28;20230;-93
2021/11/09 07:50:23;;;;;;;8.13;6.40;;;4.10;99.90;;;;;;5076289;28;20219;-92
2021/11/09 07:52:56;;;;;;;10.07;5.85;;;4.00;99.90;;;;;;5076815;28;20231;-92
2021/11/09 07:55:23;;;;;;;8.07;5.75;;;4.00;99.90;;;;;;5076187;28;20212;-92
2021/11/09 07:57:53;;;;;;;9.18;6.22;;;3.90;99.90;;;;;;5075666;28;20208;-92
2021/11/09 08:00:26;;;;;;;7.30;5.40;;;3.90;99.90;;;;;;5074333;28;20685;-92
2021/11/09 08:03:05;;;;;;;7.68;5.63;;;3.90;99.90;;;;;;5074314;28;20222;-92
2021/11/09 08:05:36;;;;;;;7.05;5.38;;;4.20;99.90;;;;;;5073904;28;20204;-92
2021/11/09 08:08:07;;;;;;;7.80;5.43;;;4.60;99.90;;;;;;5074150;28;20216;-93
2021/11/09 08:10:34;;;;;;;7.30;4.97;;;5.10;99.90;;;;;;5074256;28;20204;-92
2021/11/09 08:13:01;;;;;;;5.07;4.40;;;5.60;99.90;;;;;;5074599;28;20227;-92
2021/11/09 08:15:28;;;;;;;6.75;5.35;;;6.20;99.90;;;;;;5073750;28;20209;-94
2021/11/09 08:17:55;;;;;;;7.65;5.70;;;6.90;99.90;;;;;;5074246;28;20208;-93
2021/11/09 08:20:22;;;;;;;9.43;5.22;;;7.60;99.90;;;;;;5074061;28;20204;-92
2021/11/09 08:22:49;;;;;;;9.90;5.68;;;8.50;99.90;;;;;;5074287;28;20216;-93
2021/11/09 08:25:17;;;;;;;6.03;4.60;;;9.50;99.90;;;;;;5074037;28;20200;-93
2021/11/09 08:27:44;;;;;;;5.00;4.20;;;10.60;99.90;;;;;;5073684;28;20227;-92
2021/11/09 08:30:12;;;;;;;8.85;5.20;;;11.70;99.90;;;;;;5073753;28;20215;-93
2021/11/09 08:32:41;;;;;;;4.43;3.83;;;12.60;99.90;;;;;;5073576;28;20597;-92
2021/11/09 08:35:11;;;;;;;6.00;4.07;;;13.20;99.90;;;;;;5073872;28;20197;-91
2021/11/09 08:37:38;;;;;;;5.38;3.63;;;13.80;99.90;;;;;;5073418;28;20204;-93
2021/11/09 08:40:11;;;;;;;8.65;3.90;;;14.00;99.90;;;;;;5072890;28;20204;-93
2021/11/09 08:42:45;;;;;;;5.55;3.80;;;14.20;99.90;;;;;;5073732;28;20228;-93
2021/11/09 08:45:17;;;;;;;5.60;3.65;;;14.00;99.90;;;;;;5073524;28;20215;-93
2021/11/09 08:47:48;;;;;;;4.70;3.60;;;14.50;99.90;;;;;;5073139;28;20204;-92
2021/11/09 08:50:15;;;;;;;5.05;3.75;;;14.50;99.90;;;;;;5073385;28;20317;-92
2021/11/09 08:52:42;;;;;;;7.63;4.03;;;14.50;99.90;;;;;;5073179;28;20213;-93
2021/11/09 08:55:27;;;;;;;5.73;3.70;;;14.70;99.60;;;;;;5073928;28;20969;-93
2021/11/09 09:06:07;;;;;;;5.43;3.43;;;14.80;98.90;;;;;;5041952;28;20456;-94
2021/11/09 09:08:34;;;;;;;4.23;2.90;;;14.90;98.90;;;;;;5073882;28;20458;-94
2021/11/09 09:11:01;;;;;;;4.10;3.27;;;14.90;99.10;;;;;;5073886;28;20454;-94
2021/11/09 09:13:29;;;;;;;4.70;3.37;;;14.90;99.70;;;;;;5074857;28;20497;-93
2021/11/09 09:15:56;;;;;;;5.60;2.93;;;15.40;98.50;;;;;;5074039;28;20986;-93
2021/11/09 09:18:23;;;;;;;7.83;4.33;;;15.60;97.80;;;;;;5074105;28;20466;-95
2021/11/09 09:20:53;;;;;;;5.40;3.60;;;15.50;97.40;;;;;;5074775;28;20458;-94
2021/11/09 09:23:22;;;;;;;8.40;4.03;;;15.30;97.30;;;;;;5074110;28;20926;-92
2021/11/09 09:25:52;;;;;;;3.43;3.00;;;15.00;98.10;;;;;;5072701;28;20508;-92
2021/11/09 09:31:25;;;;;;;4.27;3.53;;;15.00;97.50;;;;;;5072994;28;20799;-92
2021/11/09 09:53:20;;;;;;;4.90;3.30;;;15.40;97.30;;;;;;5072307;28;20469;-93
2021/11/09 09:55:50;;;;;;;6.30;3.30;;;15.80;97.10;;;;;;5072571;28;20458;-93
2021/11/09 09:58:16;;;;;;;5.50;3.93;;;15.90;97.40;;;;;;5073047;28;20493;-92
2021/11/09 10:00:46;;;;;;;6.43;3.70;;;16.60;97.20;;;;;;5072514;28;20549;-93
2021/11/09 10:03:14;;;;;;;5.23;3.13;;;16.80;96.70;;;;;;5075534;28;20521;-93
2021/11/09 10:05:43;;;;;;;5.17;3.37;;;16.90;95.40;;;;;;5078072;28;20462;-93
2021/11/09 10:08:16;;;;;;;5.10;3.43;;;17.40;95.50;;;;;;5077295;28;20549;-92
2021/11/09 10:10:44;;;;;;;5.27;3.30;;;17.60;94.30;;;;;;5078394;28;20454;-92
2021/11/09 10:13:14;;;;;;;4.70;4.17;;;17.60;94.80;;;;;;5076997;28;20493;-93
2021/11/09 10:15:47;;;;;;;4.27;3.60;;;17.70;94.30;;;;;;5077975;28;20458;-92
2021/11/09 10:18:17;;;;;;;4.93;3.80;;;17.50;94.60;;;;;;5076561;28;20501;-92
2021/11/09 10:20:47;;;;;;;3.87;3.23;;;17.60;95.40;;;;;;5077191;28;20447;-93
2021/11/09 10:23:17;;;;;;;6.17;3.63;;;17.70;94.20;;;;;;5076278;28;20482;-92
2021/11/09 10:25:44;;;;;;;5.87;3.50;;;17.80;94.60;;;;;;5076103;28;20459;-92
2021/11/09 10:28:14;;;;;;;6.90;3.30;;;17.80;93.70;;;;;;5076761;28;20516;-93
2021/11/09 10:30:44;;;;;;;4.97;4.03;;;17.90;94.20;;;;;;5078177;28;20477;-94
2021/11/09 10:33:13;;;;;;;6.37;3.27;;;18.50;94.30;;;;;;5077808;28;20489;-91
2021/11/09 10:35:43;;;;;;;5.63;3.20;;;19.00;94.00;;;;;;5077649;28;20851;-93
2021/11/09 10:38:11;;;;;;;4.50;3.40;;;18.90;92.00;;;;;;5077718;28;20473;-94
2021/11/09 10:40:45;;;;;;;8.30;3.20;;;18.50;93.90;;;;;;5078635;28;20557;-93
2021/11/09 10:43:14;;;;;;;5.63;3.23;;;18.60;91.90;;;;;;5078651;28;20482;-93
2021/11/09 10:45:41;;;;;;;4.50;3.40;;;18.70;92.60;;;;;;5077939;28;20520;-93
2021/11/09 10:48:09;;;;;;;5.23;3.93;;;18.90;92.60;;;;;;5077861;28;20469;-93
2021/11/09 10:50:39;;;;;;;4.00;3.10;;;19.40;92.40;;;;;;5077706;28;20455;-92
2021/11/09 10:53:13;;;;;;;5.13;3.40;;;18.90;91.40;;;;;;5077066;28;20478;-93
2021/11/09 10:55:58;;;;;;;8.60;4.13;;;18.70;93.10;;;;;;5077561;28;20845;-93
2021/11/09 10:58:40;;;;;;;5.80;3.50;;;19.20;92.70;;;;;;5076888;28;20999;-92
2021/11/09 11:03:58;;;;;;;4.60;3.57;;;19.20;92.20;;;;;;5076748;28;20581;-94
2021/11/09 11:06:26;;;;;;;5.07;3.40;;;19.30;90.70;;;;;;5076377;28;20451;-93
2021/11/09 11:08:58;;;;;;;3.73;3.13;;;19.20;91.20;;;;;;5076893;28;20462;-91
2021/11/09 11:11:29;;;;;;;6.33;3.43;;;18.70;91.00;;;;;;5076397;28;20485;-92
2021/11/09 11:14:07;;;;;;;6.53;3.83;;;18.50;91.60;;;;;;5075501;28;20459;-93
2021/11/09 11:16:40;;;;;;;5.10;3.20;;;18.80;91.40;;;;;;5076003;28;20485;-93
2021/11/09 11:19:07;;;;;;;6.07;3.20;;;18.90;90.90;;;;;;5080599;28;20470;-92
2021/11/09 11:21:34;;;;;;;5.23;3.30;;;18.60;91.50;;;;;;5089527;28;20549;-93
2021/11/09 11:24:03;;;;;;;5.27;3.57;;;18.10;91.00;;;;;;5097520;28;20577;-94
2021/11/09 11:26:33;;;;;;;4.70;3.17;;;17.60;91.40;;;;;;5088441;28;20461;-92
2021/11/09 11:29:00;;;;;;;7.67;3.50;;;17.50;92.00;;;;;;5076443;28;20467;-93
2021/11/09 11:33:55;;;;;;;5.20;3.17;;;16.50;92.20;;;;;;5040199;28;20976;-67
2021/11/09 11:36:21;;;;;;;4.67;3.20;;;16.00;92.10;;;;;;5032091;28;20471;-67
2021/11/09 11:38:50;;;;;;;7.50;3.20;;;16.10;92.30;;;;;;5032649;28;20456;-67
2021/11/09 11:41:21;;;;;;;4.70;2.83;;;16.10;92.90;;;;;;5032900;28;20478;-67
2021/11/09 11:43:53;;;;;;;6.63;2.90;;;16.00;92.00;;;;;;5032416;28;20483;-67
2021/11/09 11:46:43;;;;;;;4.43;3.03;;;16.00;92.60;;;;;;5031985;28;20487;-67
2021/11/09 11:49:13;;;;;;;3.40;2.70;;;16.00;92.70;;;;;;5032876;28;20465;-67
2021/11/09 11:52:00;;;;;;;8.10;2.77;;;16.10;92.60;;;;;;5032536;28;20464;-67
2021/11/09 11:54:42;;;;;;;6.00;3.30;;;16.30;92.20;;;;;;5032520;28;20460;-67
2021/11/09 11:57:11;;;;;;;4.30;2.57;;;16.40;92.50;;;;;;5031967;28;20484;-67
2021/11/09 11:59:42;;;;;;;4.37;2.60;;;16.40;92.30;;;;;;5032126;28;20464;-68
2021/11/09 12:02:11;;;;;;;4.60;3.10;;;16.30;91.50;;;;;;5032379;28;20514;-67
2021/11/09 12:04:51;;;;;;;5.23;2.83;;;16.00;92.50;;;;;;5032006;28;20495;-67
2021/11/09 12:07:22;;;;;;;4.73;2.53;;;15.90;92.50;;;;;;5031688;28;20514;-67
2021/11/09 12:09:52;;;;;;;4.70;2.53;;;16.00;92.30;;;;;;5032257;28;20503;-67
2021/11/09 12:12:32;;;;;;;4.47;2.67;;;16.20;92.40;;;;;;5032434;28;20483;-67
2021/11/09 12:15:02;;;;;;;5.50;2.97;;;16.10;92.40;;;;;;5031991;28;20944;-67
2021/11/09 12:17:34;;;;;;;7.33;3.13;;;15.90;92.50;;;;;;5031359;28;20844;-68
2021/11/09 12:20:05;;;;;;;4.07;2.83;;;15.30;92.30;;;;;;5031865;28;20468;-67
2021/11/09 12:22:47;;;;;;;4.37;3.00;;;14.80;92.70;;;;;;5031932;28;20507;-68
2021/11/09 12:25:16;;;;;;;4.97;2.70;;;14.20;92.60;;;;;;5031635;28;20476;-67
2021/11/09 12:28:03;;;;;;;6.57;2.97;;;14.10;93.50;;;;;;5030494;28;20484;-67
2021/11/09 12:30:44;;;;;;;5.80;3.63;;;14.20;93.60;;;;;;5032097;28;20464;-67
2021/11/09 12:33:14;;;;;;;4.97;3.13;;;14.00;93.40;;;;;;5032200;28;20475;-67
2021/11/09 12:35:42;;;;;;;3.93;2.43;;;13.80;93.10;;;;;;5031329;28;20913;-67
2021/11/09 12:38:14;;;;;;;4.00;2.90;;;13.70;93.50;;;;;;5031847;28;20467;-67
2021/11/09 12:41:03;;;;;;;3.63;2.40;;;13.80;93.60;;;;;;5031569;28;20202;-67
2021/11/09 12:43:46;;;;;;;6.90;3.37;;;14.00;94.50;;;;;;5031401;28;21006;-67
2021/11/09 12:46:21;;;;;;;5.50;2.70;;;14.20;94.00;;;;;;5031311;28;20574;-67
2021/11/09 12:48:55;;;;;;;4.53;2.90;;;14.00;93.50;;;;;;5031347;28;20464;-68
2021/11/09 12:51:25;;;;;;;5.32;3.47;;;13.70;93.30;;;;;;5031750;28;20248;-68
2021/11/09 12:53:54;;;;;;;5.20;3.17;;;13.80;94.30;;;;;;5031277;28;20251;-69
2021/11/09 12:56:25;;;;;;;4.90;3.10;;;13.90;94.30;;;;;;5031010;28;20485;-69
2021/11/09 12:58:58;;;;;;;5.33;2.80;;;13.80;94.20;;;;;;5031198;28;20564;-68
2021/11/09 13:01:38;;;;;;;3.83;3.13;;;13.80;94.60;;;;;;5031418;28;20527;-68
2021/11/09 13:04:17;;;;;;;4.00;2.57;;;13.60;94.20;;;;;;5031140;28;21062;-68
2021/11/09 13:06:54;;;;;;;4.30;2.50;;;13.60;94.20;;;;;;5030580;28;20909;-68
2021/11/09 13:09:24;;;;;;;6.83;3.20;;;13.50;94.50;;;;;;5031363;28;20870;-68
2021/11/09 13:11:55;;;;;;;6.87;3.10;;;13.40;94.10;;;;;;5030865;28;20461;-69
2021/11/09 13:14:30;;;;;;;6.53;2.93;;;13.30;94.70;;;;;;5031294;28;20460;-68
2021/11/09 13:16:57;;;;;;;4.40;2.80;;;13.40;94.70;;;;;;5030480;28;20479;-68
2021/11/09 13:19:35;;;;;;;4.50;2.80;;;13.30;94.20;;;;;;5031309;28;20865;-68
2021/11/09 13:22:08;;;;;;;6.20;2.60;;;13.20;94.70;;;;;;5030960;28;20602;-68
2021/11/09 13:24:38;;;;;;;7.40;2.97;;;13.30;94.80;;;;;;5030766;28;21046;-68
2021/11/09 13:27:06;;;;;;;5.50;3.00;;;13.20;94.30;;;;;;5030489;28;20575;-68
2021/11/09 13:29:44;;;;;;;5.00;2.83;;;13.20;94.60;;;;;;5030955;28;20467;-68
2021/11/09 13:32:12;;;;;;;3.17;2.73;;;13.20;94.00;;;;;;5031016;28;20217;-68
2021/11/09 13:34:40;;;;;;;4.50;3.30;;;13.10;94.50;;;;;;5030792;28;20815;-68
2021/11/09 13:37:07;;;;;;;5.70;2.70;;;13.10;94.20;;;;;;5030069;28;20496;-68
2021/11/09 13:39:34;;;;;;;4.85;2.90;;;12.90;94.30;;;;;;5031004;28;20465;-68
2021/11/09 13:42:01;;;;;;;4.38;3.00;;;12.90;94.80;;;;;;5030772;28;20205;-68
2021/11/09 13:44:33;;;;;;;5.07;3.40;;;12.80;94.00;;;;;;5030700;28;20276;-68
2021/11/09 13:47:02;;;;;;;4.47;2.57;;;12.90;94.80;;;;;;5030272;28;20475;-68
2021/11/09 13:49:28;;;;;;;3.25;2.47;;;12.60;94.50;;;;;;5030741;28;20468;-68
2021/11/09 13:51:59;;;;;;;6.22;2.85;;;12.30;94.80;;;;;;5030703;28;20202;-68
2021/11/09 13:54:34;;;;;;;6.22;2.80;;;11.90;95.00;;;;;;5030946;28;20208;-68
2021/11/09 13:57:02;;;;;;;3.80;2.90;;;11.70;95.00;;;;;;5029977;28;20235;-68
2021/11/09 13:59:31;;;;;;;4.50;2.67;;;11.60;95.00;;;;;;5030802;28;20659;-68
2021/11/09 14:02:02;;;;;;;6.22;2.80;;;11.50;95.20;;;;;;5030521;28;20240;-68
2021/11/09 14:04:59;;;;;;;3.15;2.85;;;11.40;95.30;;;;;;5030647;28;20228;-68
2021/11/09 14:13:27;;;;;;;3.25;2.95;;;11.30;95.80;;;;;;5025295;28;20197;-68
2021/11/09 14:18:34;;;;;;;5.75;3.17;;;11.30;95.70;;;;;;5027626;28;20280;-68
2021/11/09 14:21:04;;;;;;;6.20;2.90;;;11.40;95.80;;;;;;5030418;28;20577;-68
2021/11/09 14:23:34;;;;;;;4.90;3.05;;;11.20;95.20;;;;;;5030453;28;20213;-68
2021/11/09 14:26:17;;;;;;;5.07;2.72;;;11.20;95.30;;;;;;5029723;28;20233;-68
2021/11/09 14:28:44;;;;;;;6.00;3.38;;;11.20;95.50;;;;;;5030633;28;20213;-68
2021/11/09 14:31:17;;;;;;;6.50;2.20;;;11.30;95.70;;;;;;5030430;28;20205;-68
2021/11/09 14:33:46;;;;;;;5.60;2.90;;;11.40;96.20;;;;;;5030288;28;20236;-68
2021/11/09 14:36:26;;;;;;;3.85;2.40;;;11.50;95.50;;;;;;5029897;28;20249;-68
2021/11/09 14:39:08;;;;;;;3.17;2.45;;;11.60;95.70;;;;;;5030102;28;20616;-68
2021/11/09 14:41:38;;;;;;;3.15;2.85;;;11.70;95.40;;;;;;5030459;28;20206;-68
2021/11/09 14:44:07;;;;;;;3.00;2.45;;;11.70;95.20;;;;;;5030104;28;20222;-68
2021/11/09 14:46:39;;;;;;;4.85;2.70;;;11.50;95.70;;;;;;5029717;28;20257;-68
2021/11/09 14:49:07;;;;;;;3.58;3.15;;;11.40;95.90;;;;;;5030676;28;20209;-68
2021/11/09 14:51:35;;;;;;;4.13;2.60;;;11.30;96.00;;;;;;5033717;28;20252;-68